createdAt,value
2023-01-06T00:00:14.676Z,82.68
2023-01-06T00:01:17.212Z,83.04
2023-01-06T00:02:18.795Z,83.53
2023-01-06T00:03:20.375Z,83.57
2023-01-06T00:04:22.028Z,83.79
2023-01-06T00:05:23.957Z,83.57
2023-01-06T00:06:28.954Z,83.52
2023-01-06T00:07:30.436Z,84.06
2023-01-06T00:08:31.946Z,84.24
2023-01-06T00:09:34.713Z,84.31
2023-01-06T00:10:36.825Z,84.16
2023-01-06T00:11:38.346Z,84.03
2023-01-06T00:12:39.840Z,84.11
2023-01-06T00:13:41.349Z,83.99
2023-01-06T00:14:44.249Z,84.13
2023-01-06T00:15:45.808Z,84.59
2023-01-06T00:16:47.313Z,84.66
2023-01-06T00:17:48.855Z,84.34
2023-01-06T00:18:52.066Z,84.01
2023-01-06T00:19:53.658Z,84.39
2023-01-06T00:20:55.128Z,84.41
2023-01-06T00:21:56.692Z,84.66
2023-01-06T00:22:58.187Z,84.83
2023-01-06T00:23:59.679Z,85.26
2023-01-06T00:25:01.228Z,85.33
2023-01-06T00:26:03.174Z,85.25
2023-01-06T00:27:04.641Z,85.12
2023-01-06T00:28:06.145Z,85.29
2023-01-06T00:29:09.147Z,85.20
2023-01-06T00:30:10.968Z,85.07
2023-01-06T00:31:14.451Z,84.88
2023-01-06T00:32:16.051Z,84.38
2023-01-06T00:33:17.550Z,84.79
2023-01-06T00:34:19.011Z,84.95
2023-01-06T00:35:20.554Z,84.96
2023-01-06T00:36:22.113Z,84.34
2023-01-06T00:37:23.673Z,84.34
2023-01-06T00:38:26.096Z,84.48
2023-01-06T00:39:27.658Z,84.82
2023-01-06T00:40:29.164Z,85.16
2023-01-06T00:41:49.579Z,84.79
2023-01-06T00:42:51.406Z,84.55
2023-01-06T00:43:52.957Z,84.30
2023-01-06T00:44:54.463Z,84.53
2023-01-06T00:45:56.000Z,84.41
2023-01-06T00:46:57.620Z,84.84
2023-01-06T00:47:59.232Z,84.83
2023-01-06T00:49:05.852Z,84.71
2023-01-06T00:50:10.660Z,85.27
2023-01-06T00:51:14.030Z,84.87
2023-01-06T00:52:15.660Z,85.26
2023-01-06T00:53:17.334Z,85.14
2023-01-06T00:54:19.061Z,84.81
2023-01-06T00:55:20.792Z,84.67
2023-01-06T00:56:22.294Z,84.75
2023-01-06T00:57:23.824Z,84.72
2023-01-06T00:58:29.060Z,84.66
2023-01-06T00:59:30.620Z,84.64
2023-01-06T01:00:32.186Z,84.14
2023-01-06T01:01:34.621Z,84.24
2023-01-06T01:02:36.365Z,84.26
2023-01-06T01:03:38.278Z,84.13
2023-01-06T01:04:39.769Z,84.16
2023-01-06T01:05:41.243Z,84.01
2023-01-06T01:06:43.604Z,83.79
2023-01-06T01:07:45.791Z,84.14
2023-01-06T01:08:48.487Z,84.35
2023-01-06T01:09:49.981Z,84.57
2023-01-06T01:10:52.553Z,84.96
2023-01-06T01:12:12.904Z,84.59
2023-01-06T01:13:14.503Z,84.12
2023-01-06T01:14:16.750Z,83.95
2023-01-06T01:15:18.251Z,83.84
2023-01-06T01:16:19.871Z,83.46
2023-01-06T01:17:21.361Z,84.19
2023-01-06T01:18:22.900Z,83.71
2023-01-06T01:19:24.423Z,83.67
2023-01-06T01:20:25.959Z,83.34
2023-01-06T01:21:27.420Z,83.38
2023-01-06T01:22:29.367Z,82.95
2023-01-06T01:23:30.895Z,82.87
2023-01-06T01:24:32.419Z,82.84
2023-01-06T01:25:33.906Z,83.11
2023-01-06T01:26:35.569Z,83.24
2023-01-06T01:27:37.028Z,83.13
2023-01-06T01:28:38.513Z,83.75
2023-01-06T01:29:41.563Z,83.85
2023-01-06T01:30:43.075Z,83.71
2023-01-06T01:31:45.294Z,83.92
2023-01-06T01:32:47.506Z,84.31
2023-01-06T01:33:49.193Z,84.52
2023-01-06T01:34:50.669Z,84.68
2023-01-06T01:35:52.171Z,84.96
2023-01-06T01:36:53.999Z,84.96
2023-01-06T01:37:55.510Z,85.20
2023-01-06T01:38:57.438Z,85.36
2023-01-06T01:39:58.959Z,85.07
2023-01-06T01:41:00.494Z,84.95
2023-01-06T01:42:02.001Z,85.11
2023-01-06T01:43:04.327Z,84.43
2023-01-06T01:44:24.246Z,84.73
2023-01-06T01:45:26.611Z,84.85
2023-01-06T01:46:28.246Z,84.81
2023-01-06T01:47:34.862Z,85.08
2023-01-06T01:48:36.369Z,85.35
2023-01-06T01:49:39.057Z,85.57
2023-01-06T01:50:42.661Z,84.86
2023-01-06T01:51:45.034Z,85.22
2023-01-06T01:52:46.979Z,85.00
2023-01-06T01:53:49.733Z,84.84
2023-01-06T01:54:51.284Z,84.98
2023-01-06T01:55:53.256Z,85.33
2023-01-06T01:57:03.395Z,85.42
2023-01-06T01:58:06.843Z,85.08
2023-01-06T01:59:12.261Z,85.37
2023-01-06T02:00:14.035Z,84.83
2023-01-06T02:01:16.188Z,84.71
2023-01-06T02:02:17.896Z,84.52
2023-01-06T02:03:20.095Z,84.45
2023-01-06T02:04:21.944Z,85.07
2023-01-06T02:05:24.687Z,84.52
2023-01-06T02:06:26.490Z,84.61
2023-01-06T02:07:28.072Z,84.64
2023-01-06T02:08:39.037Z,84.75
2023-01-06T02:09:44.051Z,84.75
2023-01-06T02:10:45.547Z,85.02
2023-01-06T02:11:51.407Z,85.06
2023-01-06T02:12:56.221Z,84.43
2023-01-06T02:14:11.078Z,84.66
2023-01-06T02:15:18.708Z,84.53
2023-01-06T02:16:25.319Z,84.17
2023-01-06T02:17:29.408Z,84.58
2023-01-06T02:18:49.737Z,84.30
2023-01-06T02:19:54.281Z,84.54
2023-01-06T02:21:00.193Z,84.54
2023-01-06T02:22:20.389Z,84.24
2023-01-06T02:23:31.934Z,84.14
2023-01-06T02:24:42.656Z,85.42
2023-01-06T02:25:59.287Z,85.29
2023-01-06T02:27:03.927Z,85.07
2023-01-06T02:28:05.418Z,84.99
2023-01-06T02:29:25.921Z,84.76
2023-01-06T02:30:27.439Z,84.29
2023-01-06T02:31:29.554Z,84.79
2023-01-06T02:32:31.060Z,85.39
2023-01-06T02:33:35.882Z,85.21
2023-01-06T02:34:43.285Z,84.93
2023-01-06T02:35:44.846Z,84.24
2023-01-06T02:37:04.867Z,83.96
2023-01-06T02:38:21.471Z,84.12
2023-01-06T02:39:40.176Z,84.48
2023-01-06T02:40:42.063Z,84.58
2023-01-06T02:41:44.179Z,84.67
2023-01-06T02:43:21.519Z,84.47
2023-01-06T02:44:32.549Z,84.67
2023-01-06T02:45:42.773Z,84.32
2023-01-06T02:47:03.545Z,84.27
2023-01-06T02:48:07.711Z,83.92
2023-01-06T02:49:32.397Z,83.71
2023-01-06T02:50:36.745Z,83.61
2023-01-06T02:51:46.958Z,83.67
2023-01-06T02:52:54.819Z,83.65
2023-01-06T02:54:08.630Z,83.16
2023-01-06T02:55:18.005Z,83.09
2023-01-06T02:56:20.846Z,82.87
2023-01-06T02:57:40.610Z,82.68
2023-01-06T02:58:45.765Z,82.57
2023-01-06T02:59:49.717Z,82.28
2023-01-06T03:00:53.067Z,82.02
2023-01-06T03:01:54.706Z,81.94
2023-01-06T03:03:00.181Z,81.94
2023-01-06T03:04:02.539Z,81.84
2023-01-06T03:05:04.839Z,81.69
2023-01-06T03:06:08.737Z,81.30
2023-01-06T03:07:10.963Z,81.46
2023-01-06T03:08:15.457Z,81.05
2023-01-06T03:09:18.073Z,81.17
2023-01-06T03:10:20.228Z,81.02
2023-01-06T03:11:21.919Z,81.42
2023-01-06T03:12:32.207Z,80.79
2023-01-06T03:13:39.905Z,80.30
2023-01-06T03:14:43.006Z,80.28
2023-01-06T03:15:44.561Z,80.59
2023-01-06T03:16:46.117Z,80.16
2023-01-06T03:17:47.626Z,80.19
2023-01-06T03:18:49.499Z,79.81
2023-01-06T03:19:52.690Z,79.13
2023-01-06T03:20:54.860Z,79.06
2023-01-06T03:21:56.912Z,79.17
2023-01-06T03:22:58.432Z,79.46
2023-01-06T03:24:00.877Z,79.48
2023-01-06T03:25:03.001Z,79.11
2023-01-06T03:26:04.843Z,79.01
2023-01-06T03:27:06.472Z,78.56
2023-01-06T03:28:09.228Z,78.50
2023-01-06T03:29:11.230Z,78.54
2023-01-06T03:30:13.078Z,78.70
2023-01-06T03:31:22.739Z,78.77
2023-01-06T03:32:24.339Z,78.27
2023-01-06T03:33:27.124Z,78.28
2023-01-06T03:34:40.739Z,78.21
2023-01-06T03:35:51.706Z,78.26
2023-01-06T03:37:12.340Z,78.39
2023-01-06T03:38:15.472Z,78.46
2023-01-06T03:39:26.639Z,78.67
2023-01-06T03:40:33.934Z,78.38
2023-01-06T03:41:58.683Z,78.35
2023-01-06T03:43:16.127Z,78.06
2023-01-06T03:44:24.115Z,78.20
2023-01-06T03:45:25.647Z,78.09
2023-01-06T03:46:29.296Z,78.13
2023-01-06T03:47:42.254Z,78.07
2023-01-06T03:49:13.497Z,78.22
2023-01-06T03:50:22.135Z,78.18
2023-01-06T03:51:23.873Z,78.03
2023-01-06T03:52:27.026Z,77.85
2023-01-06T03:53:37.462Z,78.18
2023-01-06T03:54:57.930Z,78.33
2023-01-06T03:56:18.311Z,78.42
2023-01-06T03:57:24.393Z,78.34
2023-01-06T03:58:27.190Z,78.22
2023-01-06T03:59:28.872Z,77.97
2023-01-06T04:00:32.005Z,78.17
2023-01-06T04:01:38.123Z,78.00
2023-01-06T04:02:40.009Z,77.90
2023-01-06T04:03:46.393Z,78.04
2023-01-06T04:05:20.752Z,77.88
2023-01-06T04:06:23.559Z,78.19
2023-01-06T04:07:25.635Z,78.30
2023-01-06T04:08:27.165Z,78.31
2023-01-06T04:09:29.937Z,78.53
2023-01-06T04:10:31.483Z,78.42
2023-01-06T04:11:52.780Z,78.25
2023-01-06T04:12:54.727Z,78.48
2023-01-06T04:14:00.755Z,78.54
2023-01-06T04:15:03.081Z,78.66
2023-01-06T04:16:04.816Z,78.14
2023-01-06T04:17:06.901Z,78.51
2023-01-06T04:18:08.971Z,78.50
2023-01-06T04:19:13.272Z,78.51
2023-01-06T04:20:19.061Z,78.53
2023-01-06T04:21:21.198Z,78.60
2023-01-06T04:22:22.734Z,78.63
2023-01-06T04:23:24.212Z,78.65
2023-01-06T04:24:25.951Z,78.99
2023-01-06T04:25:27.451Z,79.40
2023-01-06T04:26:28.945Z,79.15
2023-01-06T04:27:30.487Z,78.92
2023-01-06T04:28:32.137Z,78.82
2023-01-06T04:29:33.794Z,78.94
2023-01-06T04:30:35.371Z,78.91
2023-01-06T04:31:37.551Z,78.76
2023-01-06T04:32:39.404Z,78.93
2023-01-06T04:33:42.501Z,78.94
2023-01-06T04:34:46.350Z,79.37
2023-01-06T04:35:48.147Z,79.13
2023-01-06T04:36:52.692Z,78.87
2023-01-06T04:37:55.033Z,78.69
2023-01-06T04:38:56.581Z,78.48
2023-01-06T04:39:58.092Z,78.63
2023-01-06T04:40:59.586Z,78.76
2023-01-06T04:42:01.100Z,78.99
2023-01-06T04:43:05.614Z,78.56
2023-01-06T04:44:07.177Z,78.27
2023-01-06T04:45:08.787Z,78.18
2023-01-06T04:46:10.408Z,78.44
2023-01-06T04:47:11.960Z,78.37
2023-01-06T04:48:13.814Z,78.13
2023-01-06T04:49:15.345Z,78.40
2023-01-06T04:50:16.820Z,78.06
2023-01-06T04:51:18.283Z,77.80
2023-01-06T04:52:19.800Z,77.99
2023-01-06T04:53:21.350Z,78.04
2023-01-06T04:54:22.859Z,78.13
2023-01-06T04:55:24.357Z,77.84
2023-01-06T04:56:26.871Z,77.73
2023-01-06T04:57:28.520Z,77.74
2023-01-06T04:58:30.081Z,77.67
2023-01-06T04:59:31.612Z,77.74
2023-01-06T05:00:33.139Z,77.81
2023-01-06T05:01:34.894Z,77.67
2023-01-06T05:02:36.407Z,77.43
2023-01-06T05:03:38.106Z,77.28
2023-01-06T05:04:47.387Z,77.15
2023-01-06T05:05:49.633Z,77.06
2023-01-06T05:06:51.431Z,77.04
2023-01-06T05:07:55.756Z,76.96
2023-01-06T05:08:57.231Z,76.68
2023-01-06T05:09:58.705Z,76.83
2023-01-06T05:11:00.797Z,76.74
2023-01-06T05:12:02.299Z,76.73
2023-01-06T05:13:03.781Z,76.54
2023-01-06T05:14:05.301Z,76.93
2023-01-06T05:15:07.117Z,76.76
2023-01-06T05:16:09.359Z,76.71
2023-01-06T05:17:10.941Z,76.66
2023-01-06T05:18:12.554Z,76.66
2023-01-06T05:19:14.012Z,76.53
2023-01-06T05:20:15.561Z,76.26
2023-01-06T05:21:17.095Z,76.52
2023-01-06T05:22:18.709Z,76.55
2023-01-06T05:23:20.406Z,76.39
2023-01-06T05:24:21.870Z,76.36
2023-01-06T05:25:23.385Z,76.52
2023-01-06T05:26:25.411Z,76.46
2023-01-06T05:27:27.080Z,76.35
2023-01-06T05:28:29.251Z,76.30
2023-01-06T05:29:30.789Z,76.29
2023-01-06T05:30:32.351Z,76.27
2023-01-06T05:31:33.849Z,76.13
2023-01-06T05:32:35.436Z,76.36
2023-01-06T05:33:36.993Z,76.35
2023-01-06T05:34:38.492Z,76.28
2023-01-06T05:35:39.955Z,76.44
2023-01-06T05:36:41.470Z,76.29
2023-01-06T05:37:43.027Z,76.41
2023-01-06T05:38:44.667Z,76.49
2023-01-06T05:39:46.149Z,76.50
2023-01-06T05:40:50.814Z,76.34
2023-01-06T05:41:52.352Z,76.32
2023-01-06T05:42:56.594Z,76.23
2023-01-06T05:43:58.137Z,76.26
2023-01-06T05:44:59.661Z,76.38
2023-01-06T05:46:04.489Z,76.42
2023-01-06T05:47:06.078Z,76.09
2023-01-06T05:48:07.564Z,76.13
2023-01-06T05:49:09.106Z,76.28
2023-01-06T05:50:10.674Z,76.29
2023-01-06T05:51:13.038Z,76.11
2023-01-06T05:52:14.510Z,76.33
2023-01-06T05:53:16.078Z,76.27
2023-01-06T05:54:17.589Z,76.24
2023-01-06T05:55:19.229Z,76.14
2023-01-06T05:56:20.957Z,76.21
2023-01-06T05:57:22.468Z,76.42
2023-01-06T05:58:23.976Z,76.24
2023-01-06T05:59:25.442Z,76.22
2023-01-06T06:00:26.966Z,76.26
2023-01-06T06:01:31.324Z,76.42
2023-01-06T06:02:32.938Z,76.44
2023-01-06T06:03:34.597Z,76.28
2023-01-06T06:04:36.103Z,76.41
2023-01-06T06:05:37.678Z,76.32
2023-01-06T06:06:39.162Z,76.27
2023-01-06T06:07:40.677Z,76.32
2023-01-06T06:08:42.190Z,76.26
2023-01-06T06:09:43.667Z,76.42
2023-01-06T06:10:45.297Z,76.40
2023-01-06T06:11:46.788Z,76.31
2023-01-06T06:12:48.341Z,76.39
2023-01-06T06:13:50.648Z,76.40
2023-01-06T06:14:52.187Z,76.45
2023-01-06T06:16:02.823Z,76.53
2023-01-06T06:17:04.398Z,76.81
2023-01-06T06:18:05.987Z,76.94
2023-01-06T06:19:07.461Z,76.96
2023-01-06T06:20:09.228Z,76.98
2023-01-06T06:21:14.118Z,77.14
2023-01-06T06:22:15.598Z,77.13
2023-01-06T06:23:17.109Z,76.56
2023-01-06T06:24:18.653Z,76.35
2023-01-06T06:25:20.134Z,76.22
2023-01-06T06:26:21.729Z,76.48
2023-01-06T06:27:23.218Z,76.48
2023-01-06T06:28:24.786Z,76.17
2023-01-06T06:29:26.441Z,76.37
2023-01-06T06:30:28.119Z,76.10
2023-01-06T06:31:29.745Z,75.54
2023-01-06T06:32:31.434Z,75.63
2023-01-06T06:33:33.085Z,75.54
2023-01-06T06:34:34.596Z,74.78
2023-01-06T06:35:36.141Z,75.04
2023-01-06T06:36:37.661Z,74.75
2023-01-06T06:37:39.166Z,74.11
2023-01-06T06:38:40.708Z,74.09
2023-01-06T06:39:42.207Z,74.42
2023-01-06T06:40:44.216Z,74.20
2023-01-06T06:41:46.026Z,74.28
2023-01-06T06:42:51.575Z,74.11
2023-01-06T06:43:53.167Z,73.68
2023-01-06T06:44:55.274Z,73.74
2023-01-06T06:45:56.941Z,73.34
2023-01-06T06:46:58.536Z,74.03
2023-01-06T06:48:00.434Z,73.77
2023-01-06T06:49:02.222Z,73.67
2023-01-06T06:50:04.714Z,73.81
2023-01-06T06:51:07.402Z,72.98
2023-01-06T06:52:08.989Z,72.78
2023-01-06T06:53:10.575Z,73.06
2023-01-06T06:54:12.171Z,73.15
2023-01-06T06:55:13.653Z,72.66
2023-01-06T06:56:15.385Z,73.17
2023-01-06T06:57:16.950Z,73.09
2023-01-06T06:58:18.530Z,72.90
2023-01-06T06:59:20.227Z,72.79
2023-01-06T07:00:21.717Z,72.95
2023-01-06T07:01:23.346Z,72.51
2023-01-06T07:02:25.041Z,72.56
2023-01-06T07:03:26.551Z,72.90
2023-01-06T07:04:28.220Z,71.16
2023-01-06T07:05:29.816Z,72.21
2023-01-06T07:06:31.566Z,72.18
2023-01-06T07:07:33.078Z,72.56
2023-01-06T07:08:34.645Z,71.92
2023-01-06T07:09:36.316Z,71.81
2023-01-06T07:10:37.865Z,72.16
2023-01-06T07:11:39.353Z,71.74
2023-01-06T07:12:40.932Z,72.19
2023-01-06T07:13:42.464Z,72.18
2023-01-06T07:14:43.936Z,72.34
2023-01-06T07:15:45.508Z,72.34
2023-01-06T07:16:47.028Z,72.53
2023-01-06T07:17:48.507Z,72.06
2023-01-06T07:18:50.110Z,72.37
2023-01-06T07:19:51.605Z,71.83
2023-01-06T07:20:53.993Z,71.77
2023-01-06T07:21:55.522Z,72.19
2023-01-06T07:22:57.103Z,71.95
2023-01-06T07:23:58.577Z,71.45
2023-01-06T07:25:00.093Z,70.84
2023-01-06T07:26:02.173Z,71.49
2023-01-06T07:27:03.673Z,71.23
2023-01-06T07:28:07.078Z,71.44
2023-01-06T07:29:08.647Z,71.59
2023-01-06T07:30:10.548Z,71.60
2023-01-06T07:31:12.181Z,71.08
2023-01-06T07:32:13.740Z,71.33
2023-01-06T07:33:15.237Z,71.15
2023-01-06T07:34:16.738Z,71.46
2023-01-06T07:35:18.624Z,71.33
2023-01-06T07:36:20.324Z,70.88
2023-01-06T07:37:21.855Z,70.56
2023-01-06T07:38:23.437Z,70.99
2023-01-06T07:39:24.922Z,71.38
2023-01-06T07:40:26.423Z,71.18
2023-01-06T07:41:28.087Z,71.43
2023-01-06T07:42:32.961Z,71.84
2023-01-06T07:43:34.440Z,71.49
2023-01-06T07:44:35.896Z,71.92
2023-01-06T07:45:37.390Z,71.83
2023-01-06T07:46:38.944Z,71.88
2023-01-06T07:47:40.410Z,71.83
2023-01-06T07:48:41.940Z,71.63
2023-01-06T07:49:43.495Z,71.96
2023-01-06T07:50:45.047Z,71.83
2023-01-06T07:51:46.537Z,71.88
2023-01-06T07:52:48.211Z,72.15
2023-01-06T07:53:49.825Z,72.09
2023-01-06T07:54:51.290Z,72.32
2023-01-06T07:55:53.120Z,72.61
2023-01-06T07:56:54.572Z,72.17
2023-01-06T07:57:56.159Z,72.46
2023-01-06T07:58:57.826Z,72.73
2023-01-06T07:59:59.298Z,72.77
2023-01-06T08:01:04.950Z,72.69
2023-01-06T08:02:06.988Z,72.82
2023-01-06T08:03:09.684Z,72.69
2023-01-06T08:04:11.245Z,72.59
2023-01-06T08:05:12.772Z,72.33
2023-01-06T08:06:14.312Z,72.65
2023-01-06T08:07:16.037Z,72.74
2023-01-06T08:08:17.603Z,72.73
2023-01-06T08:09:19.125Z,72.90
2023-01-06T08:10:20.613Z,72.83
2023-01-06T08:11:22.180Z,73.30
2023-01-06T08:12:23.705Z,73.28
2023-01-06T08:13:25.232Z,73.14
2023-01-06T08:14:26.775Z,73.03
2023-01-06T08:15:28.384Z,72.82
2023-01-06T08:16:29.915Z,73.06
2023-01-06T08:17:31.447Z,72.42
2023-01-06T08:18:33.060Z,72.63
2023-01-06T08:19:34.572Z,72.24
2023-01-06T08:20:36.107Z,72.18
2023-01-06T08:21:37.665Z,71.63
2023-01-06T08:22:39.147Z,71.50
2023-01-06T08:23:40.723Z,71.63
2023-01-06T08:24:42.309Z,71.23
2023-01-06T08:25:43.822Z,71.23
2023-01-06T08:26:45.301Z,71.17
2023-01-06T08:27:46.868Z,71.32
2023-01-06T08:28:48.431Z,71.00
2023-01-06T08:29:52.063Z,71.57
2023-01-06T08:30:55.198Z,70.70
2023-01-06T08:32:09.262Z,70.72
2023-01-06T08:33:11.712Z,71.13
2023-01-06T08:34:14.546Z,70.93
2023-01-06T08:35:16.137Z,71.37
2023-01-06T08:36:18.185Z,71.04
2023-01-06T08:37:19.654Z,70.76
2023-01-06T08:38:21.164Z,71.02
2023-01-06T08:39:22.675Z,70.74
2023-01-06T08:40:24.246Z,70.08
2023-01-06T08:41:25.861Z,70.24
2023-01-06T08:42:27.406Z,70.50
2023-01-06T08:43:29.791Z,70.36
2023-01-06T08:44:31.246Z,70.52
2023-01-06T08:45:32.820Z,70.65
2023-01-06T08:46:34.563Z,70.39
2023-01-06T08:47:36.457Z,70.09
2023-01-06T08:48:37.909Z,70.11
2023-01-06T08:49:39.382Z,69.54
2023-01-06T08:50:41.200Z,70.11
2023-01-06T08:51:42.697Z,70.46
2023-01-06T08:52:44.176Z,69.97
2023-01-06T08:53:45.720Z,70.02
2023-01-06T08:54:47.228Z,69.97
2023-01-06T08:55:48.824Z,69.99
2023-01-06T08:56:50.366Z,70.29
2023-01-06T08:57:54.573Z,70.26
2023-01-06T08:58:58.191Z,70.52
2023-01-06T08:59:59.703Z,70.36
2023-01-06T09:01:01.258Z,70.10
2023-01-06T09:02:02.834Z,70.24
2023-01-06T09:05:06.532Z,70.61
2023-01-06T09:06:08.104Z,69.86
2023-01-06T09:07:09.794Z,69.93
2023-01-06T09:08:11.272Z,70.19
2023-01-06T09:09:13.073Z,70.21
2023-01-06T09:10:14.531Z,70.31
2023-01-06T09:11:17.059Z,70.19
2023-01-06T09:12:18.541Z,70.73
2023-01-06T09:13:20.067Z,69.75
2023-01-06T09:14:21.627Z,70.44
2023-01-06T09:15:23.133Z,70.40
2023-01-06T09:16:24.646Z,70.41
2023-01-06T09:17:26.254Z,70.08
2023-01-06T09:18:27.886Z,69.68
2023-01-06T09:19:29.407Z,69.63
2023-01-06T09:20:31.005Z,69.38
2023-01-06T09:21:32.563Z,69.23
2023-01-06T09:22:34.100Z,69.02
2023-01-06T09:23:35.629Z,68.94
2023-01-06T09:24:37.177Z,68.99
2023-01-06T09:25:39.597Z,68.33
2023-01-06T09:26:41.157Z,68.94
2023-01-06T09:27:42.743Z,69.04
2023-01-06T09:28:44.214Z,68.57
2023-01-06T09:29:45.712Z,68.69
2023-01-06T09:30:48.567Z,68.74
2023-01-06T09:31:50.060Z,69.31
2023-01-06T09:32:51.605Z,68.87
2023-01-06T09:33:53.431Z,68.99
2023-01-06T09:34:54.893Z,69.08
2023-01-06T09:35:56.443Z,68.67
2023-01-06T09:36:57.967Z,69.12
2023-01-06T09:37:59.492Z,69.60
2023-01-06T09:39:01.036Z,69.93
2023-01-06T09:40:03.240Z,70.05
2023-01-06T09:41:04.910Z,69.80
2023-01-06T09:42:13.615Z,69.60
2023-01-06T09:43:15.149Z,69.77
2023-01-06T09:44:21.557Z,70.02
2023-01-06T09:45:40.140Z,70.51
2023-01-06T09:46:43.072Z,70.56
2023-01-06T09:47:47.438Z,69.81
2023-01-06T09:48:56.417Z,69.43
2023-01-06T09:50:12.541Z,69.33
2023-01-06T09:51:14.852Z,68.90
2023-01-06T09:52:39.474Z,68.85
2023-01-06T09:53:41.275Z,69.08
2023-01-06T09:55:03.286Z,68.83
2023-01-06T09:56:05.856Z,68.74
2023-01-06T09:57:11.689Z,68.51
2023-01-06T09:58:14.272Z,68.70
2023-01-06T09:59:23.517Z,68.47
2023-01-06T10:00:25.147Z,68.45
2023-01-06T10:01:31.317Z,68.75
2023-01-06T10:02:41.584Z,68.12
2023-01-06T10:03:46.136Z,68.00
2023-01-06T10:04:47.724Z,68.20
2023-01-06T10:06:07.782Z,68.08
2023-01-06T10:07:32.389Z,67.73
2023-01-06T10:08:52.532Z,67.80
2023-01-06T10:10:06.365Z,67.30
2023-01-06T10:11:07.924Z,67.53
2023-01-06T10:12:15.191Z,67.80
2023-01-06T10:13:29.860Z,67.71
2023-01-06T10:14:57.533Z,67.57
2023-01-06T10:16:07.961Z,67.75
2023-01-06T10:17:21.623Z,67.88
2023-01-06T10:18:23.098Z,67.79
2023-01-06T10:19:30.277Z,67.39
2023-01-06T10:20:32.128Z,67.82
2023-01-06T10:21:44.931Z,67.75
2023-01-06T10:22:54.985Z,67.44
2023-01-06T10:24:15.486Z,67.96
2023-01-06T10:25:27.684Z,68.13
2023-01-06T10:26:29.907Z,67.97
2023-01-06T10:27:39.749Z,67.91
2023-01-06T10:28:44.651Z,68.06
2023-01-06T10:29:46.176Z,67.77
2023-01-06T10:30:48.167Z,67.80
2023-01-06T10:31:49.768Z,68.10
2023-01-06T10:32:51.325Z,68.10
2023-01-06T10:33:53.529Z,68.17
2023-01-06T10:34:55.105Z,67.96
2023-01-06T10:35:56.832Z,68.04
2023-01-06T10:37:10.393Z,68.06
2023-01-06T10:38:11.879Z,68.03
2023-01-06T10:39:13.917Z,68.15
2023-01-06T10:40:19.645Z,67.86
2023-01-06T10:41:21.221Z,67.94
2023-01-06T10:42:41.466Z,67.84
2023-01-06T10:43:43.002Z,68.23
2023-01-06T10:44:44.487Z,67.87
2023-01-06T10:45:46.596Z,67.76
2023-01-06T10:46:50.083Z,67.68
2023-01-06T10:47:52.250Z,67.77
2023-01-06T10:48:53.787Z,67.71
2023-01-06T10:49:55.256Z,67.90
2023-01-06T10:50:57.869Z,67.73
2023-01-06T10:51:59.666Z,67.83
2023-01-06T10:53:01.159Z,68.05
2023-01-06T10:54:04.898Z,68.02
2023-01-06T10:55:06.599Z,67.92
2023-01-06T10:56:08.768Z,68.02
2023-01-06T10:57:15.713Z,68.11
2023-01-06T10:58:22.632Z,68.26
2023-01-06T10:59:24.177Z,68.01
2023-01-06T11:00:25.901Z,68.20
2023-01-06T11:01:27.785Z,67.82
2023-01-06T11:02:29.515Z,67.89
2023-01-06T11:03:34.247Z,68.03
2023-01-06T11:04:37.157Z,68.17
2023-01-06T11:05:38.724Z,67.99
2023-01-06T11:06:43.455Z,68.18
2023-01-06T11:07:45.792Z,68.09
2023-01-06T11:08:47.304Z,68.29
2023-01-06T11:09:50.001Z,68.11
2023-01-06T11:10:52.045Z,68.23
2023-01-06T11:11:53.679Z,68.41
2023-01-06T11:12:55.779Z,68.13
2023-01-06T11:13:58.011Z,68.42
2023-01-06T11:14:59.733Z,68.90
2023-01-06T11:16:39.889Z,68.13
2023-01-06T11:17:41.497Z,68.85
2023-01-06T11:18:42.984Z,68.51
2023-01-06T11:19:44.822Z,68.11
2023-01-06T11:20:47.395Z,67.27
2023-01-06T11:21:48.918Z,67.46
2023-01-06T11:22:50.447Z,66.55
2023-01-06T11:23:51.952Z,66.43
2023-01-06T11:24:53.962Z,66.31
2023-01-06T11:26:04.345Z,64.91
2023-01-06T11:27:15.144Z,65.24
2023-01-06T11:28:16.668Z,64.81
2023-01-06T11:29:19.188Z,64.78
2023-01-06T11:30:21.551Z,64.15
2023-01-06T11:31:25.803Z,64.36
2023-01-06T11:32:28.085Z,65.15
2023-01-06T11:33:30.194Z,66.24
2023-01-06T11:34:31.753Z,64.96
2023-01-06T11:35:33.375Z,63.80
2023-01-06T11:36:34.833Z,63.34
2023-01-06T11:37:39.685Z,62.97
2023-01-06T11:38:45.567Z,63.27
2023-01-06T11:39:49.203Z,63.70
2023-01-06T11:40:57.695Z,64.35
2023-01-06T11:42:03.115Z,62.93
2023-01-06T11:43:23.550Z,64.32
2023-01-06T11:44:33.397Z,63.43
2023-01-06T11:45:35.509Z,63.02
2023-01-06T11:46:37.180Z,62.33
2023-01-06T11:47:38.762Z,63.88
2023-01-06T11:48:41.866Z,63.50
2023-01-06T11:49:46.384Z,62.07
2023-01-06T11:50:54.382Z,62.93
2023-01-06T11:51:59.286Z,63.01
2023-01-06T11:53:04.550Z,62.91
2023-01-06T11:54:16.429Z,62.24
2023-01-06T11:55:21.197Z,62.14
2023-01-06T11:56:22.778Z,62.24
2023-01-06T11:57:29.454Z,62.53
2023-01-06T11:58:30.919Z,62.96
2023-01-06T11:59:44.224Z,62.25
2023-01-06T12:00:51.847Z,62.00
2023-01-06T12:01:55.618Z,62.21
2023-01-06T12:03:15.431Z,63.18
2023-01-06T12:04:19.814Z,62.60
2023-01-06T12:05:24.326Z,62.45
2023-01-06T12:06:38.304Z,62.04
2023-01-06T12:07:47.042Z,61.92
2023-01-06T12:08:59.623Z,61.35
2023-01-06T12:10:03.943Z,62.08
2023-01-06T12:11:15.637Z,61.83
2023-01-06T12:12:21.412Z,61.63
2023-01-06T12:13:23.764Z,61.95
2023-01-06T12:14:29.483Z,62.09
2023-01-06T12:15:31.514Z,62.68
2023-01-06T12:16:37.377Z,62.61
2023-01-06T12:17:50.866Z,62.18
2023-01-06T12:18:52.437Z,62.62
2023-01-06T12:19:53.904Z,62.25
2023-01-06T12:20:55.506Z,62.18
2023-01-06T12:21:57.038Z,62.28
2023-01-06T12:23:05.764Z,62.36
2023-01-06T12:24:07.429Z,62.10
2023-01-06T12:25:19.382Z,62.42
2023-01-06T12:26:23.802Z,62.31
2023-01-06T12:27:35.417Z,61.96
2023-01-06T12:28:38.120Z,62.45
2023-01-06T12:29:39.672Z,61.62
2023-01-06T12:30:51.253Z,62.12
2023-01-06T12:31:57.961Z,62.12
2023-01-06T12:33:11.343Z,62.65
2023-01-06T12:34:32.924Z,61.91
2023-01-06T12:35:34.375Z,61.72
2023-01-06T12:36:52.228Z,61.31
2023-01-06T12:37:57.842Z,61.51
2023-01-06T12:39:01.941Z,61.40
2023-01-06T12:40:09.219Z,61.38
2023-01-06T12:41:17.475Z,60.93
2023-01-06T12:42:18.991Z,60.90
2023-01-06T12:43:22.425Z,60.73
2023-01-06T12:44:23.880Z,61.18
2023-01-06T12:45:49.772Z,60.86
2023-01-06T12:47:00.685Z,60.83
2023-01-06T12:48:03.582Z,61.14
2023-01-06T12:49:06.066Z,60.79
2023-01-06T12:50:07.547Z,60.98
2023-01-06T12:51:16.907Z,61.04
2023-01-06T12:52:19.850Z,60.76
2023-01-06T12:53:24.500Z,60.42
2023-01-06T12:54:26.018Z,60.78
2023-01-06T12:55:47.798Z,60.89
2023-01-06T12:57:08.101Z,60.82
2023-01-06T12:58:25.016Z,61.18
2023-01-06T12:59:32.499Z,60.49
2023-01-06T13:00:57.319Z,60.02
2023-01-06T13:02:25.030Z,60.26
2023-01-06T13:03:45.036Z,60.06
2023-01-06T13:04:55.475Z,60.13
2023-01-06T13:05:59.892Z,60.11
2023-01-06T13:07:01.369Z,60.04
2023-01-06T13:08:07.717Z,59.93
2023-01-06T13:09:14.863Z,60.13
2023-01-06T13:10:27.074Z,60.21
2023-01-06T13:11:28.605Z,59.78
2023-01-06T13:12:36.390Z,59.81
2023-01-06T13:13:49.847Z,59.53
2023-01-06T13:14:56.678Z,59.55
2023-01-06T13:15:59.812Z,60.09
2023-01-06T13:17:08.085Z,59.45
2023-01-06T13:18:20.528Z,59.53
2023-01-06T13:19:27.845Z,59.99
2023-01-06T13:20:45.988Z,60.18
2023-01-06T13:21:48.010Z,59.88
2023-01-06T13:22:49.511Z,59.68
2023-01-06T13:23:51.025Z,59.22
2023-01-06T13:24:52.571Z,59.58
2023-01-06T13:25:57.082Z,59.86
2023-01-06T13:27:16.931Z,59.42
2023-01-06T13:28:24.682Z,59.51
2023-01-06T13:29:38.487Z,59.57
2023-01-06T13:30:40.024Z,59.84
2023-01-06T13:31:45.715Z,59.57
2023-01-06T13:32:59.072Z,59.83
2023-01-06T13:34:16.578Z,60.18
2023-01-06T13:35:24.463Z,60.23
2023-01-06T13:36:44.725Z,59.80
2023-01-06T13:37:52.088Z,59.88
2023-01-06T13:38:53.630Z,59.79
2023-01-06T13:39:55.085Z,59.81
2023-01-06T13:40:57.952Z,59.44
2023-01-06T13:42:00.224Z,59.60
2023-01-06T13:43:24.555Z,59.77
2023-01-06T13:44:27.533Z,59.44
2023-01-06T13:45:32.710Z,59.63
2023-01-06T13:46:34.190Z,59.81
2023-01-06T13:47:35.694Z,59.98
2023-01-06T13:48:40.035Z,59.99
2023-01-06T13:49:41.658Z,60.37